sensor_id;sensor_type;location;lat;lon;timestamp;P1;durP1;ratioP1;P2;durP2;ratioP2
3231;SDS011;1628;48.884;9.210;2022-11-11T00:02:01;12.53;;;8.90;;
3231;SDS011;1628;48.884;9.210;2022-11-11T00:04:28;10.60;;;9.50;;
3231;SDS011;1628;48.884;9.210;2022-11-11T00:06:55;10.53;;;9.43;;
3231;SDS011;1628;48.884;9.210;2022-11-11T00:09:21;10.50;;;9.47;;
3231;SDS011;1628;48.884;9.210;2022-11-11T00:11:48;13.00;;;10.60;;
3231;SDS011;1628;48.884;9.210;2022-11-11T00:14:14;12.00;;;10.90;;
3231;SDS011;1628;48.884;9.210;2022-11-11T00:16:42;13.13;;;11.20;;
3231;SDS011;1628;48.884;9.210;2022-11-11T00:19:27;12.80;;;11.53;;
3231;SDS011;1628;48.884;9.210;2022-11-11T00:22:14;15.47;;;13.30;;
3231;SDS011;1628;48.884;9.210;2022-11-11T00:25:03;14.47;;;12.47;;
3231;SDS011;1628;48.884;9.210;2022-11-11T00:27:33;15.53;;;12.97;;
3231;SDS011;1628;48.884;9.210;2022-11-11T00:30:00;15.70;;;14.10;;
3231;SDS011;1628;48.884;9.210;2022-11-11T00:32:30;16.77;;;15.17;;
3231;SDS011;1628;48.884;9.210;2022-11-11T00:34:57;14.77;;;13.47;;
3231;SDS011;1628;48.884;9.210;2022-11-11T00:37:42;16.83;;;15.30;;
3231;SDS011;1628;48.884;9.210;2022-11-11T00:40:10;15.63;;;14.10;;
3231;SDS011;1628;48.884;9.210;2022-11-11T00:42:38;15.50;;;13.97;;
3231;SDS011;1628;48.884;9.210;2022-11-11T00:45:05;17.23;;;15.17;;
3231;SDS011;1628;48.884;9.210;2022-11-11T00:47:34;18.53;;;15.47;;
3231;SDS011;1628;48.884;9.210;2022-11-11T00:50:20;18.47;;;15.57;;
3231;SDS011;1628;48.884;9.210;2022-11-11T00:53:07;17.93;;;16.07;;
3231;SDS011;1628;48.884;9.210;2022-11-11T00:55:36;19.80;;;15.67;;
3231;SDS011;1628;48.884;9.210;2022-11-11T00:58:02;17.63;;;16.03;;
3231;SDS011;1628;48.884;9.210;2022-11-11T01:00:29;17.00;;;15.20;;
3231;SDS011;1628;48.884;9.210;2022-11-11T01:02:57;17.20;;;15.40;;
3231;SDS011;1628;48.884;9.210;2022-11-11T01:05:24;17.30;;;15.47;;
3231;SDS011;1628;48.884;9.210;2022-11-11T01:07:50;19.07;;;17.27;;
3231;SDS011;1628;48.884;9.210;2022-11-11T01:10:18;17.67;;;15.87;;
3231;SDS011;1628;48.884;9.210;2022-11-11T01:12:59;19.13;;;17.30;;
3231;SDS011;1628;48.884;9.210;2022-11-11T01:15:36;19.07;;;16.97;;
3231;SDS011;1628;48.884;9.210;2022-11-11T01:18:05;18.80;;;16.77;;
3231;SDS011;1628;48.884;9.210;2022-11-11T01:20:32;20.80;;;16.43;;
3231;SDS011;1628;48.884;9.210;2022-11-11T01:23:01;20.07;;;17.97;;
3231;SDS011;1628;48.884;9.210;2022-11-11T01:25:28;21.53;;;18.73;;
3231;SDS011;1628;48.884;9.210;2022-11-11T01:27:55;20.40;;;18.17;;
3231;SDS011;1628;48.884;9.210;2022-11-11T01:30:21;19.37;;;17.47;;
3231;SDS011;1628;48.884;9.210;2022-11-11T01:32:48;18.77;;;16.80;;
3231;SDS011;1628;48.884;9.210;2022-11-11T01:35:16;19.03;;;17.23;;
3231;SDS011;1628;48.884;9.210;2022-11-11T01:37:43;19.43;;;17.17;;
3231;SDS011;1628;48.884;9.210;2022-11-11T01:40:10;18.23;;;16.37;;
3231;SDS011;1628;48.884;9.210;2022-11-11T01:42:46;19.40;;;16.83;;
3231;SDS011;1628;48.884;9.210;2022-11-11T01:48:12;19.17;;;16.30;;
3231;SDS011;1628;48.884;9.210;2022-11-11T01:51:01;19.70;;;17.77;;
3231;SDS011;1628;48.884;9.210;2022-11-11T01:53:30;18.90;;;16.90;;
3231;SDS011;1628;48.884;9.210;2022-11-11T01:55:57;18.60;;;16.77;;
3231;SDS011;1628;48.884;9.210;2022-11-11T01:58:26;25.50;;;16.70;;
3231;SDS011;1628;48.884;9.210;2022-11-11T02:00:53;20.03;;;16.60;;
3231;SDS011;1628;48.884;9.210;2022-11-11T02:03:20;16.80;;;15.30;;
3231;SDS011;1628;48.884;9.210;2022-11-11T02:05:49;17.63;;;15.83;;
3231;SDS011;1628;48.884;9.210;2022-11-11T02:08:21;16.73;;;15.20;;
3231;SDS011;1628;48.884;9.210;2022-11-11T02:10:57;17.00;;;15.30;;
3231;SDS011;1628;48.884;9.210;2022-11-11T02:13:25;16.13;;;14.47;;
3231;SDS011;1628;48.884;9.210;2022-11-11T02:16:09;17.50;;;14.60;;
3231;SDS011;1628;48.884;9.210;2022-11-11T02:18:36;16.20;;;14.60;;
3231;SDS011;1628;48.884;9.210;2022-11-11T02:21:03;16.87;;;15.23;;
3231;SDS011;1628;48.884;9.210;2022-11-11T02:23:31;14.43;;;12.50;;
3231;SDS011;1628;48.884;9.210;2022-11-11T02:26:04;14.57;;;13.17;;
3231;SDS011;1628;48.884;9.210;2022-11-11T02:28:34;15.57;;;14.07;;
3231;SDS011;1628;48.884;9.210;2022-11-11T02:31:03;16.43;;;14.33;;
3231;SDS011;1628;48.884;9.210;2022-11-11T02:33:29;15.30;;;13.70;;
3231;SDS011;1628;48.884;9.210;2022-11-11T02:35:56;15.07;;;13.37;;
3231;SDS011;1628;48.884;9.210;2022-11-11T02:38:25;15.17;;;13.77;;
3231;SDS011;1628;48.884;9.210;2022-11-11T02:40:52;14.97;;;13.50;;
3231;SDS011;1628;48.884;9.210;2022-11-11T02:43:38;15.60;;;14.10;;
3231;SDS011;1628;48.884;9.210;2022-11-11T02:46:05;14.57;;;13.07;;
3231;SDS011;1628;48.884;9.210;2022-11-11T02:48:32;18.40;;;13.70;;
3231;SDS011;1628;48.884;9.210;2022-11-11T02:50:59;15.70;;;14.20;;
3231;SDS011;1628;48.884;9.210;2022-11-11T02:53:26;19.27;;;15.97;;
3231;SDS011;1628;48.884;9.210;2022-11-11T02:55:52;17.60;;;15.73;;
3231;SDS011;1628;48.884;9.210;2022-11-11T02:58:19;17.60;;;15.70;;
3231;SDS011;1628;48.884;9.210;2022-11-11T03:00:47;17.40;;;15.67;;
3231;SDS011;1628;48.884;9.210;2022-11-11T03:03:14;17.30;;;15.70;;
3231;SDS011;1628;48.884;9.210;2022-11-11T03:05:40;19.97;;;18.03;;
3231;SDS011;1628;48.884;9.210;2022-11-11T03:08:07;18.30;;;16.57;;
3231;SDS011;1628;48.884;9.210;2022-11-11T03:10:34;18.37;;;16.67;;
3231;SDS011;1628;48.884;9.210;2022-11-11T03:13:00;19.13;;;17.30;;
3231;SDS011;1628;48.884;9.210;2022-11-11T03:15:27;19.30;;;17.17;;
3231;SDS011;1628;48.884;9.210;2022-11-11T03:17:55;20.97;;;18.73;;
3231;SDS011;1628;48.884;9.210;2022-11-11T03:20:21;20.33;;;18.23;;
3231;SDS011;1628;48.884;9.210;2022-11-11T03:23:05;19.70;;;17.77;;
3231;SDS011;1628;48.884;9.210;2022-11-11T03:25:36;19.53;;;16.93;;
3231;SDS011;1628;48.884;9.210;2022-11-11T03:28:03;17.03;;;15.50;;
3231;SDS011;1628;48.884;9.210;2022-11-11T03:30:30;17.80;;;15.93;;
3231;SDS011;1628;48.884;9.210;2022-11-11T03:32:58;17.80;;;15.57;;
3231;SDS011;1628;48.884;9.210;2022-11-11T03:35:25;16.83;;;15.27;;
3231;SDS011;1628;48.884;9.210;2022-11-11T03:37:52;18.50;;;16.53;;
3231;SDS011;1628;48.884;9.210;2022-11-11T03:40:36;16.23;;;14.73;;
3231;SDS011;1628;48.884;9.210;2022-11-11T03:43:03;15.80;;;14.23;;
3231;SDS011;1628;48.884;9.210;2022-11-11T03:45:30;15.30;;;13.83;;
3231;SDS011;1628;48.884;9.210;2022-11-11T03:47:56;15.53;;;14.10;;
3231;SDS011;1628;48.884;9.210;2022-11-11T03:50:24;13.57;;;12.17;;
3231;SDS011;1628;48.884;9.210;2022-11-11T03:52:51;18.80;;;14.17;;
3231;SDS011;1628;48.884;9.210;2022-11-11T03:55:18;14.87;;;13.37;;
3231;SDS011;1628;48.884;9.210;2022-11-11T03:57:45;15.90;;;14.30;;
3231;SDS011;1628;48.884;9.210;2022-11-11T04:00:13;15.47;;;14.10;;
3231;SDS011;1628;48.884;9.210;2022-11-11T04:02:41;19.27;;;17.17;;
3231;SDS011;1628;48.884;9.210;2022-11-11T04:05:29;18.60;;;16.80;;
3231;SDS011;1628;48.884;9.210;2022-11-11T04:08:14;16.43;;;14.77;;
3231;SDS011;1628;48.884;9.210;2022-11-11T04:11:01;16.83;;;15.23;;
3231;SDS011;1628;48.884;9.210;2022-11-11T04:13:31;18.77;;;16.00;;
3231;SDS011;1628;48.884;9.210;2022-11-11T04:16:16;18.97;;;16.43;;
3231;SDS011;1628;48.884;9.210;2022-11-11T04:18:43;18.23;;;16.23;;
3231;SDS011;1628;48.884;9.210;2022-11-11T04:21:28;19.37;;;17.40;;
3231;SDS011;1628;48.884;9.210;2022-11-11T04:24:10;22.53;;;18.10;;
3231;SDS011;1628;48.884;9.210;2022-11-11T04:26:57;20.80;;;18.70;;
3231;SDS011;1628;48.884;9.210;2022-11-11T04:29:25;21.83;;;19.50;;
3231;SDS011;1628;48.884;9.210;2022-11-11T04:31:55;19.13;;;17.37;;
3231;SDS011;1628;48.884;9.210;2022-11-11T04:34:39;19.60;;;17.60;;
3231;SDS011;1628;48.884;9.210;2022-11-11T04:37:08;19.67;;;17.57;;
3231;SDS011;1628;48.884;9.210;2022-11-11T04:39:35;19.97;;;17.47;;
3231;SDS011;1628;48.884;9.210;2022-11-11T04:42:20;18.80;;;16.97;;
3231;SDS011;1628;48.884;9.210;2022-11-11T04:44:47;20.00;;;18.07;;
3231;SDS011;1628;48.884;9.210;2022-11-11T04:47:31;18.93;;;16.90;;
3231;SDS011;1628;48.884;9.210;2022-11-11T04:49:58;19.23;;;17.43;;
3231;SDS011;1628;48.884;9.210;2022-11-11T04:52:26;19.03;;;17.13;;
3231;SDS011;1628;48.884;9.210;2022-11-11T04:54:53;19.73;;;17.83;;
3231;SDS011;1628;48.884;9.210;2022-11-11T04:57:38;18.70;;;16.80;;
3231;SDS011;1628;48.884;9.210;2022-11-11T05:00:07;17.50;;;15.33;;
3231;SDS011;1628;48.884;9.210;2022-11-11T05:02:35;17.07;;;15.33;;
3231;SDS011;1628;48.884;9.210;2022-11-11T05:05:19;16.60;;;14.90;;
3231;SDS011;1628;48.884;9.210;2022-11-11T05:07:47;18.87;;;16.03;;
3231;SDS011;1628;48.884;9.210;2022-11-11T05:10:31;17.37;;;15.70;;
3231;SDS011;1628;48.884;9.210;2022-11-11T05:12:58;18.60;;;15.70;;
3231;SDS011;1628;48.884;9.210;2022-11-11T05:15:38;16.53;;;14.20;;
3231;SDS011;1628;48.884;9.210;2022-11-11T05:18:27;16.80;;;15.10;;
3231;SDS011;1628;48.884;9.210;2022-11-11T05:21:11;16.37;;;14.67;;
3231;SDS011;1628;48.884;9.210;2022-11-11T05:23:47;15.83;;;14.30;;
3231;SDS011;1628;48.884;9.210;2022-11-11T05:26:32;16.30;;;14.10;;
3231;SDS011;1628;48.884;9.210;2022-11-11T05:28:59;16.50;;;14.83;;
3231;SDS011;1628;48.884;9.210;2022-11-11T05:31:26;19.10;;;15.13;;
3231;SDS011;1628;48.884;9.210;2022-11-11T05:33:53;15.83;;;14.33;;
3231;SDS011;1628;48.884;9.210;2022-11-11T05:36:20;16.50;;;14.90;;
3231;SDS011;1628;48.884;9.210;2022-11-11T05:38:49;18.37;;;16.57;;
3231;SDS011;1628;48.884;9.210;2022-11-11T05:41:15;16.33;;;15.03;;
3231;SDS011;1628;48.884;9.210;2022-11-11T05:43:42;18.17;;;15.90;;
3231;SDS011;1628;48.884;9.210;2022-11-11T05:46:08;16.00;;;14.60;;
3231;SDS011;1628;48.884;9.210;2022-11-11T05:48:36;15.63;;;14.23;;
3231;SDS011;1628;48.884;9.210;2022-11-11T05:51:23;14.57;;;12.93;;
3231;SDS011;1628;48.884;9.210;2022-11-11T05:54:00;15.10;;;13.70;;
3231;SDS011;1628;48.884;9.210;2022-11-11T05:56:26;14.83;;;13.47;;
3231;SDS011;1628;48.884;9.210;2022-11-11T05:58:53;14.17;;;12.87;;
3231;SDS011;1628;48.884;9.210;2022-11-11T06:01:20;14.20;;;13.00;;
3231;SDS011;1628;48.884;9.210;2022-11-11T06:03:47;14.77;;;13.37;;
3231;SDS011;1628;48.884;9.210;2022-11-11T06:06:13;14.00;;;12.80;;
3231;SDS011;1628;48.884;9.210;2022-11-11T06:08:40;20.63;;;12.60;;
3231;SDS011;1628;48.884;9.210;2022-11-11T06:11:09;14.13;;;12.80;;
3231;SDS011;1628;48.884;9.210;2022-11-11T06:13:36;13.40;;;11.33;;
3231;SDS011;1628;48.884;9.210;2022-11-11T06:16:03;12.83;;;11.83;;
3231;SDS011;1628;48.884;9.210;2022-11-11T06:18:30;12.53;;;11.53;;
3231;SDS011;1628;48.884;9.210;2022-11-11T06:20:57;11.63;;;10.60;;
3231;SDS011;1628;48.884;9.210;2022-11-11T06:23:24;12.53;;;11.30;;
3231;SDS011;1628;48.884;9.210;2022-11-11T06:25:52;11.60;;;10.60;;
3231;SDS011;1628;48.884;9.210;2022-11-11T06:28:39;12.00;;;10.90;;
3231;SDS011;1628;48.884;9.210;2022-11-11T06:31:07;12.07;;;11.00;;
3231;SDS011;1628;48.884;9.210;2022-11-11T06:33:34;13.10;;;11.20;;
3231;SDS011;1628;48.884;9.210;2022-11-11T06:36:02;11.70;;;10.70;;
3231;SDS011;1628;48.884;9.210;2022-11-11T06:38:29;13.10;;;11.80;;
3231;SDS011;1628;48.884;9.210;2022-11-11T06:40:56;12.40;;;11.10;;
3231;SDS011;1628;48.884;9.210;2022-11-11T06:43:23;12.40;;;11.30;;
3231;SDS011;1628;48.884;9.210;2022-11-11T06:45:51;13.20;;;12.00;;
3231;SDS011;1628;48.884;9.210;2022-11-11T06:48:19;14.27;;;12.77;;
3231;SDS011;1628;48.884;9.210;2022-11-11T06:50:46;13.53;;;12.23;;
3231;SDS011;1628;48.884;9.210;2022-11-11T06:53:13;13.53;;;12.33;;
3231;SDS011;1628;48.884;9.210;2022-11-11T06:55:41;13.70;;;12.20;;
3231;SDS011;1628;48.884;9.210;2022-11-11T06:58:08;14.47;;;13.17;;
3231;SDS011;1628;48.884;9.210;2022-11-11T07:00:36;13.90;;;12.47;;
3231;SDS011;1628;48.884;9.210;2022-11-11T07:03:06;13.23;;;11.97;;
3231;SDS011;1628;48.884;9.210;2022-11-11T07:05:34;15.20;;;13.70;;
3231;SDS011;1628;48.884;9.210;2022-11-11T07:08:01;14.67;;;13.27;;
3231;SDS011;1628;48.884;9.210;2022-11-11T07:10:29;14.73;;;13.37;;
3231;SDS011;1628;48.884;9.210;2022-11-11T07:12:56;15.00;;;13.50;;
3231;SDS011;1628;48.884;9.210;2022-11-11T07:15:23;14.60;;;13.30;;
3231;SDS011;1628;48.884;9.210;2022-11-11T07:17:50;13.77;;;12.37;;
3231;SDS011;1628;48.884;9.210;2022-11-11T07:20:18;14.37;;;13.00;;
3231;SDS011;1628;48.884;9.210;2022-11-11T07:22:45;13.20;;;12.10;;
3231;SDS011;1628;48.884;9.210;2022-11-11T07:25:12;13.67;;;12.30;;
3231;SDS011;1628;48.884;9.210;2022-11-11T07:27:39;13.90;;;11.80;;
3231;SDS011;1628;48.884;9.210;2022-11-11T07:30:08;12.10;;;11.10;;
3231;SDS011;1628;48.884;9.210;2022-11-11T07:32:36;11.93;;;10.93;;
3231;SDS011;1628;48.884;9.210;2022-11-11T07:35:03;11.00;;;10.00;;
3231;SDS011;1628;48.884;9.210;2022-11-11T07:37:31;10.60;;;9.57;;
3231;SDS011;1628;48.884;9.210;2022-11-11T07:39:58;10.63;;;9.73;;
3231;SDS011;1628;48.884;9.210;2022-11-11T07:42:24;12.10;;;10.93;;
3231;SDS011;1628;48.884;9.210;2022-11-11T07:44:51;10.87;;;9.53;;
3231;SDS011;1628;48.884;9.210;2022-11-11T07:47:18;10.43;;;9.50;;
3231;SDS011;1628;48.884;9.210;2022-11-11T07:49:45;10.50;;;9.57;;
3231;SDS011;1628;48.884;9.210;2022-11-11T07:52:11;9.63;;;8.67;;
3231;SDS011;1628;48.884;9.210;2022-11-11T07:54:39;11.97;;;9.03;;
3231;SDS011;1628;48.884;9.210;2022-11-11T07:57:06;9.47;;;8.57;;
3231;SDS011;1628;48.884;9.210;2022-11-11T07:59:32;9.63;;;8.03;;
3231;SDS011;1628;48.884;9.210;2022-11-11T08:01:59;9.43;;;8.60;;
3231;SDS011;1628;48.884;9.210;2022-11-11T08:04:26;12.20;;;8.90;;
3231;SDS011;1628;48.884;9.210;2022-11-11T08:06:52;9.87;;;8.20;;
3231;SDS011;1628;48.884;9.210;2022-11-11T08:09:19;8.17;;;7.40;;
3231;SDS011;1628;48.884;9.210;2022-11-11T08:11:47;9.03;;;8.20;;
3231;SDS011;1628;48.884;9.210;2022-11-11T08:14:31;10.17;;;9.27;;
3231;SDS011;1628;48.884;9.210;2022-11-11T08:16:58;7.73;;;7.13;;
3231;SDS011;1628;48.884;9.210;2022-11-11T08:19:25;7.40;;;6.90;;
3231;SDS011;1628;48.884;9.210;2022-11-11T08:21:52;8.40;;;7.60;;
3231;SDS011;1628;48.884;9.210;2022-11-11T08:24:19;11.47;;;6.90;;
3231;SDS011;1628;48.884;9.210;2022-11-11T08:26:46;7.90;;;7.10;;
3231;SDS011;1628;48.884;9.210;2022-11-11T08:29:14;6.50;;;5.90;;
3231;SDS011;1628;48.884;9.210;2022-11-11T08:31:41;6.57;;;6.07;;
3231;SDS011;1628;48.884;9.210;2022-11-11T08:34:07;7.40;;;6.70;;
3231;SDS011;1628;48.884;9.210;2022-11-11T08:36:34;6.83;;;6.20;;
3231;SDS011;1628;48.884;9.210;2022-11-11T08:39:01;6.90;;;6.37;;
3231;SDS011;1628;48.884;9.210;2022-11-11T08:41:27;8.43;;;7.53;;
3231;SDS011;1628;48.884;9.210;2022-11-11T08:43:55;7.13;;;6.53;;
3231;SDS011;1628;48.884;9.210;2022-11-11T08:46:23;6.43;;;5.90;;
3231;SDS011;1628;48.884;9.210;2022-11-11T08:48:50;7.33;;;6.63;;
3231;SDS011;1628;48.884;9.210;2022-11-11T08:51:17;6.50;;;6.00;;
3231;SDS011;1628;48.884;9.210;2022-11-11T08:53:44;7.50;;;6.80;;
3231;SDS011;1628;48.884;9.210;2022-11-11T08:56:11;5.63;;;5.23;;
3231;SDS011;1628;48.884;9.210;2022-11-11T08:58:37;5.70;;;5.30;;
3231;SDS011;1628;48.884;9.210;2022-11-11T09:01:10;5.87;;;5.27;;
3231;SDS011;1628;48.884;9.210;2022-11-11T09:03:37;9.30;;;8.50;;
3231;SDS011;1628;48.884;9.210;2022-11-11T09:06:07;5.50;;;5.00;;
3231;SDS011;1628;48.884;9.210;2022-11-11T09:08:34;5.83;;;5.30;;
3231;SDS011;1628;48.884;9.210;2022-11-11T09:11:00;6.70;;;5.97;;
3231;SDS011;1628;48.884;9.210;2022-11-11T09:13:27;5.47;;;5.07;;
3231;SDS011;1628;48.884;9.210;2022-11-11T09:15:54;5.60;;;5.10;;
3231;SDS011;1628;48.884;9.210;2022-11-11T09:18:23;5.30;;;4.80;;
3231;SDS011;1628;48.884;9.210;2022-11-11T09:20:50;5.70;;;5.20;;
3231;SDS011;1628;48.884;9.210;2022-11-11T09:23:16;6.07;;;5.50;;
3231;SDS011;1628;48.884;9.210;2022-11-11T09:25:43;5.73;;;5.27;;
3231;SDS011;1628;48.884;9.210;2022-11-11T09:28:10;5.03;;;4.23;;
3231;SDS011;1628;48.884;9.210;2022-11-11T09:30:37;6.80;;;5.20;;
3231;SDS011;1628;48.884;9.210;2022-11-11T09:33:03;4.90;;;4.50;;
3231;SDS011;1628;48.884;9.210;2022-11-11T09:35:32;5.30;;;4.80;;
3231;SDS011;1628;48.884;9.210;2022-11-11T09:37:59;5.10;;;4.70;;
3231;SDS011;1628;48.884;9.210;2022-11-11T09:40:27;5.40;;;4.90;;
3231;SDS011;1628;48.884;9.210;2022-11-11T09:43:09;5.20;;;4.63;;
3231;SDS011;1628;48.884;9.210;2022-11-11T09:45:44;5.37;;;4.87;;
3231;SDS011;1628;48.884;9.210;2022-11-11T09:48:24;4.97;;;4.30;;
3231;SDS011;1628;48.884;9.210;2022-11-11T09:51:05;4.83;;;4.43;;
3231;SDS011;1628;48.884;9.210;2022-11-11T09:53:41;4.27;;;3.97;;
3231;SDS011;1628;48.884;9.210;2022-11-11T09:56:14;4.67;;;4.27;;
3231;SDS011;1628;48.884;9.210;2022-11-11T09:58:44;6.50;;;5.93;;
3231;SDS011;1628;48.884;9.210;2022-11-11T10:01:16;5.53;;;5.03;;
3231;SDS011;1628;48.884;9.210;2022-11-11T10:03:46;5.10;;;4.63;;
3231;SDS011;1628;48.884;9.210;2022-11-11T10:06:19;5.57;;;4.70;;
3231;SDS011;1628;48.884;9.210;2022-11-11T10:08:50;5.40;;;5.10;;
3231;SDS011;1628;48.884;9.210;2022-11-11T10:11:28;5.20;;;4.90;;
3231;SDS011;1628;48.884;9.210;2022-11-11T10:14:03;5.33;;;4.93;;
3231;SDS011;1628;48.884;9.210;2022-11-11T10:16:32;5.67;;;5.10;;
3231;SDS011;1628;48.884;9.210;2022-11-11T10:19:13;7.83;;;5.20;;
3231;SDS011;1628;48.884;9.210;2022-11-11T10:21:55;5.23;;;4.83;;
3231;SDS011;1628;48.884;9.210;2022-11-11T10:24:25;5.83;;;5.33;;
3231;SDS011;1628;48.884;9.210;2022-11-11T10:26:55;6.67;;;6.07;;
3231;SDS011;1628;48.884;9.210;2022-11-11T10:29:24;13.23;;;5.60;;
3231;SDS011;1628;48.884;9.210;2022-11-11T10:31:54;6.57;;;5.63;;
3231;SDS011;1628;48.884;9.210;2022-11-11T10:34:27;9.03;;;5.83;;
3231;SDS011;1628;48.884;9.210;2022-11-11T10:37:00;6.63;;;5.20;;
3231;SDS011;1628;48.884;9.210;2022-11-11T10:39:29;11.50;;;6.53;;
3231;SDS011;1628;48.884;9.210;2022-11-11T10:42:04;5.93;;;5.10;;
3231;SDS011;1628;48.884;9.210;2022-11-11T10:44:39;7.00;;;6.20;;
3231;SDS011;1628;48.884;9.210;2022-11-11T10:47:08;8.13;;;5.60;;
3231;SDS011;1628;48.884;9.210;2022-11-11T10:49:42;6.03;;;5.50;;
3231;SDS011;1628;48.884;9.210;2022-11-11T10:52:17;5.93;;;5.53;;
3231;SDS011;1628;48.884;9.210;2022-11-11T10:54:49;7.33;;;5.73;;
3231;SDS011;1628;48.884;9.210;2022-11-11T10:57:21;6.83;;;6.10;;
3231;SDS011;1628;48.884;9.210;2022-11-11T10:59:55;8.70;;;6.20;;
3231;SDS011;1628;48.884;9.210;2022-11-11T11:02:25;8.17;;;5.70;;
3231;SDS011;1628;48.884;9.210;2022-11-11T11:04:57;6.60;;;6.10;;
3231;SDS011;1628;48.884;9.210;2022-11-11T11:07:33;6.53;;;5.90;;
3231;SDS011;1628;48.884;9.210;2022-11-11T11:10:06;6.47;;;5.97;;
3231;SDS011;1628;48.884;9.210;2022-11-11T11:12:38;7.50;;;6.17;;
3231;SDS011;1628;48.884;9.210;2022-11-11T11:15:10;7.20;;;6.60;;
3231;SDS011;1628;48.884;9.210;2022-11-11T11:17:44;12.57;;;5.90;;
3231;SDS011;1628;48.884;9.210;2022-11-11T11:20:17;6.10;;;5.60;;
3231;SDS011;1628;48.884;9.210;2022-11-11T11:22:47;7.03;;;6.30;;
3231;SDS011;1628;48.884;9.210;2022-11-11T11:25:15;6.50;;;5.13;;
3231;SDS011;1628;48.884;9.210;2022-11-11T11:27:44;7.50;;;6.73;;
3231;SDS011;1628;48.884;9.210;2022-11-11T11:30:11;6.63;;;5.30;;
3231;SDS011;1628;48.884;9.210;2022-11-11T11:32:40;5.43;;;5.03;;
3231;SDS011;1628;48.884;9.210;2022-11-11T11:35:09;5.97;;;5.47;;
3231;SDS011;1628;48.884;9.210;2022-11-11T11:37:55;6.27;;;5.70;;
3231;SDS011;1628;48.884;9.210;2022-11-11T11:40:22;7.07;;;5.70;;
3231;SDS011;1628;48.884;9.210;2022-11-11T11:42:48;5.53;;;5.00;;
3231;SDS011;1628;48.884;9.210;2022-11-11T11:45:18;8.30;;;5.40;;
3231;SDS011;1628;48.884;9.210;2022-11-11T11:47:49;6.47;;;5.80;;
3231;SDS011;1628;48.884;9.210;2022-11-11T11:50:28;8.43;;;5.83;;
3231;SDS011;1628;48.884;9.210;2022-11-11T11:53:08;6.23;;;5.47;;
3231;SDS011;1628;48.884;9.210;2022-11-11T11:55:45;8.67;;;5.60;;
3231;SDS011;1628;48.884;9.210;2022-11-11T11:58:19;6.57;;;4.93;;
3231;SDS011;1628;48.884;9.210;2022-11-11T12:00:57;6.10;;;5.30;;
3231;SDS011;1628;48.884;9.210;2022-11-11T12:03:43;5.40;;;5.00;;
3231;SDS011;1628;48.884;9.210;2022-11-11T12:06:29;5.27;;;4.77;;
3231;SDS011;1628;48.884;9.210;2022-11-11T12:09:08;5.13;;;4.70;;
3231;SDS011;1628;48.884;9.210;2022-11-11T12:11:46;6.70;;;4.37;;
3231;SDS011;1628;48.884;9.210;2022-11-11T12:14:25;8.83;;;5.53;;
3231;SDS011;1628;48.884;9.210;2022-11-11T12:17:13;4.80;;;4.43;;
3231;SDS011;1628;48.884;9.210;2022-11-11T12:19:52;12.17;;;5.13;;
3231;SDS011;1628;48.884;9.210;2022-11-11T12:22:29;5.30;;;4.77;;
3231;SDS011;1628;48.884;9.210;2022-11-11T12:25:11;5.30;;;4.80;;
3231;SDS011;1628;48.884;9.210;2022-11-11T12:27:44;4.67;;;4.20;;
3231;SDS011;1628;48.884;9.210;2022-11-11T12:30:19;6.63;;;5.57;;
3231;SDS011;1628;48.884;9.210;2022-11-11T12:33:00;7.50;;;4.90;;
3231;SDS011;1628;48.884;9.210;2022-11-11T12:35:53;6.27;;;4.83;;
3231;SDS011;1628;48.884;9.210;2022-11-11T12:38:31;5.13;;;3.90;;
3231;SDS011;1628;48.884;9.210;2022-11-11T12:41:18;3.30;;;3.10;;
3231;SDS011;1628;48.884;9.210;2022-11-11T12:43:53;7.20;;;4.00;;
3231;SDS011;1628;48.884;9.210;2022-11-11T12:46:28;5.90;;;4.13;;
3231;SDS011;1628;48.884;9.210;2022-11-11T12:49:06;5.30;;;4.80;;
3231;SDS011;1628;48.884;9.210;2022-11-11T12:51:54;4.37;;;3.53;;
3231;SDS011;1628;48.884;9.210;2022-11-11T12:54:29;4.30;;;3.90;;
3231;SDS011;1628;48.884;9.210;2022-11-11T12:57:07;4.53;;;3.77;;
3231;SDS011;1628;48.884;9.210;2022-11-11T12:59:47;4.00;;;3.70;;
3231;SDS011;1628;48.884;9.210;2022-11-11T13:02:29;7.53;;;4.73;;
3231;SDS011;1628;48.884;9.210;2022-11-11T13:05:09;3.83;;;3.47;;
3231;SDS011;1628;48.884;9.210;2022-11-11T13:07:48;3.97;;;3.67;;
3231;SDS011;1628;48.884;9.210;2022-11-11T13:10:30;4.20;;;3.80;;
3231;SDS011;1628;48.884;9.210;2022-11-11T13:13:04;3.83;;;3.53;;
3231;SDS011;1628;48.884;9.210;2022-11-11T13:15:41;4.03;;;3.63;;
3231;SDS011;1628;48.884;9.210;2022-11-11T13:18:09;5.47;;;4.30;;
3231;SDS011;1628;48.884;9.210;2022-11-11T13:20:45;3.53;;;3.23;;
3231;SDS011;1628;48.884;9.210;2022-11-11T13:23:17;4.27;;;3.83;;
3231;SDS011;1628;48.884;9.210;2022-11-11T13:25:46;3.77;;;3.40;;
3231;SDS011;1628;48.884;9.210;2022-11-11T13:28:17;3.80;;;3.60;;
3231;SDS011;1628;48.884;9.210;2022-11-11T13:30:50;5.00;;;3.33;;
3231;SDS011;1628;48.884;9.210;2022-11-11T13:33:35;6.80;;;3.83;;
3231;SDS011;1628;48.884;9.210;2022-11-11T13:36:05;4.63;;;4.30;;
3231;SDS011;1628;48.884;9.210;2022-11-11T13:38:34;6.80;;;3.70;;
3231;SDS011;1628;48.884;9.210;2022-11-11T13:41:04;4.80;;;3.60;;
3231;SDS011;1628;48.884;9.210;2022-11-11T13:43:34;7.50;;;3.43;;
3231;SDS011;1628;48.884;9.210;2022-11-11T13:46:05;7.60;;;3.10;;
3231;SDS011;1628;48.884;9.210;2022-11-11T13:48:52;4.07;;;3.40;;
3231;SDS011;1628;48.884;9.210;2022-11-11T13:51:21;11.23;;;3.70;;
3231;SDS011;1628;48.884;9.210;2022-11-11T13:53:52;2.33;;;2.20;;
3231;SDS011;1628;48.884;9.210;2022-11-11T13:56:22;4.80;;;2.40;;
3231;SDS011;1628;48.884;9.210;2022-11-11T13:58:52;2.90;;;2.70;;
3231;SDS011;1628;48.884;9.210;2022-11-11T14:01:21;3.17;;;2.30;;
3231;SDS011;1628;48.884;9.210;2022-11-11T14:03:58;3.63;;;2.60;;
3231;SDS011;1628;48.884;9.210;2022-11-11T14:06:27;2.43;;;2.17;;
3231;SDS011;1628;48.884;9.210;2022-11-11T14:09:01;2.80;;;2.10;;
3231;SDS011;1628;48.884;9.210;2022-11-11T14:11:29;2.37;;;2.10;;
3231;SDS011;1628;48.884;9.210;2022-11-11T14:17:11;2.27;;;2.17;;
3231;SDS011;1628;48.884;9.210;2022-11-11T14:19:39;2.63;;;2.43;;
3231;SDS011;1628;48.884;9.210;2022-11-11T14:22:23;3.33;;;2.87;;
3231;SDS011;1628;48.884;9.210;2022-11-11T14:25:08;2.80;;;2.50;;
3231;SDS011;1628;48.884;9.210;2022-11-11T14:27:45;2.70;;;2.50;;
3231;SDS011;1628;48.884;9.210;2022-11-11T14:30:27;3.73;;;2.80;;
3231;SDS011;1628;48.884;9.210;2022-11-11T14:33:06;3.00;;;2.80;;
3231;SDS011;1628;48.884;9.210;2022-11-11T14:35:43;3.93;;;2.60;;
3231;SDS011;1628;48.884;9.210;2022-11-11T14:38:22;4.90;;;3.23;;
3231;SDS011;1628;48.884;9.210;2022-11-11T14:49:55;4.90;;;2.97;;
3231;SDS011;1628;48.884;9.210;2022-11-11T14:52:25;3.70;;;3.40;;
3231;SDS011;1628;48.884;9.210;2022-11-11T14:57:47;3.40;;;3.03;;
3231;SDS011;1628;48.884;9.210;2022-11-11T15:00:16;5.30;;;3.40;;
3231;SDS011;1628;48.884;9.210;2022-11-11T15:02:46;3.73;;;3.43;;
3231;SDS011;1628;48.884;9.210;2022-11-11T15:05:20;3.73;;;2.90;;
3231;SDS011;1628;48.884;9.210;2022-11-11T15:07:58;3.60;;;3.00;;
3231;SDS011;1628;48.884;9.210;2022-11-11T15:10:30;3.60;;;3.30;;
3231;SDS011;1628;48.884;9.210;2022-11-11T15:13:20;3.67;;;3.37;;
3231;SDS011;1628;48.884;9.210;2022-11-11T15:16:16;5.80;;;3.50;;
3231;SDS011;1628;48.884;9.210;2022-11-11T15:19:07;6.13;;;5.13;;
3231;SDS011;1628;48.884;9.210;2022-11-11T15:21:51;6.30;;;3.53;;
3231;SDS011;1628;48.884;9.210;2022-11-11T15:24:26;4.50;;;4.20;;
3231;SDS011;1628;48.884;9.210;2022-11-11T15:27:03;5.70;;;4.50;;
3231;SDS011;1628;48.884;9.210;2022-11-11T15:29:41;4.67;;;3.83;;
3231;SDS011;1628;48.884;9.210;2022-11-11T15:32:25;7.30;;;4.73;;
3231;SDS011;1628;48.884;9.210;2022-11-11T15:35:01;5.00;;;4.50;;
3231;SDS011;1628;48.884;9.210;2022-11-11T15:37:39;8.20;;;5.33;;
3231;SDS011;1628;48.884;9.210;2022-11-11T15:40:06;6.43;;;5.40;;
3231;SDS011;1628;48.884;9.210;2022-11-11T15:42:43;7.17;;;5.23;;
3231;SDS011;1628;48.884;9.210;2022-11-11T15:45:13;5.17;;;4.63;;
3231;SDS011;1628;48.884;9.210;2022-11-11T15:47:46;6.93;;;5.00;;